Camrose, Canada
Current Conditions -  °F | °C
As of 2:00 PM on Monday 24 Nov 2014 (Local Time) from CYEG Reporting Station
Broken Clouds Broken Clouds  
Wind Chill: 23°   Ceiling: 22000
Heat Index: 30°   Visibility: 15mi
Dew Point: 23°   Wind: 7mph
Humidity: 75%   Direction: 200°SSW
Pressure: 29.9"   Gusts: NA
Location:  53.02°N, 112.82°W
Report Text: CYEG 242100Z 20006KT 15SM SCT170 BKN220 M01/M05 A2990 RMK AS3CI4 SLP158
Loading
Personal Weather Stations






























Interactive Weather Map New forecast layout! Learn more

10-Day Weather Forecast

Advertisements
Track Severe Weather on mobile